Time;durP1;ratioP1;P1;durP2;ratioP2;P2;SDS_P1;SDS_P2;PMS_P1;PMS_P2;Temp;Humidity;BMP_temperature;BMP_pressure;BME280_temperature;BME280_humidity;BME280_pressure;Samples;Min_cycle;Max_cycle;Signal;HPM_P1;HPM_P2
2022/06/02 00:03:10;;;;;;;;;13.00;13.00;;;;;13.73;100.00;99587.38;6285093;20;2810967;-54
2022/06/02 00:06:24;;;;;;;;;15.33;15.33;;;;;13.67;100.00;99591.41;6312590;20;3533592;-54
2022/06/02 00:09:32;;;;;;;;;14.67;14.67;;;;;13.75;100.00;99594.38;6312283;20;3535686;-57
2022/06/02 00:12:47;;;;;;;;;13.00;13.00;;;;;13.29;100.00;99599.69;6285594;20;2802497;-55
2022/06/02 00:15:42;;;;;;;;;13.00;13.00;;;;;13.63;100.00;99592.63;6285869;20;2792157;-55
2022/06/02 00:18:31;;;;;;;;;15.50;15.50;;;;;13.59;100.00;99585.75;6285670;20;2811791;-56
2022/06/02 00:21:30;;;;;;;;;16.00;14.80;;;;;13.31;100.00;99590.50;6305073;20;2815083;-56
2022/06/02 00:24:33;;;;;;;;;14.00;14.00;;;;;13.50;100.00;99579.19;6285167;20;2798228;-56
2022/06/02 00:28:00;;;;;;;;;13.67;13.67;;;;;12.97;100.00;99575.94;6281448;20;3524232;-56
2022/06/02 00:30:39;;;;;;;;;15.67;13.67;;;;;12.95;100.00;99577.88;6308689;20;2804650;-54
2022/06/02 00:33:45;;;;;;;;;16.00;14.00;;;;;12.81;100.00;99586.09;6311897;20;2803692;-54
2022/06/02 00:36:50;;;;;;;;;12.00;12.00;;;;;13.36;100.00;99580.22;6311680;20;3522305;-55
2022/06/02 00:39:19;;;;;;;;;16.33;13.33;;;;;13.43;100.00;99571.69;6311930;20;3523175;-53
2022/06/02 00:41:55;;;;;;;;;11.67;10.67;;;;;12.98;100.00;99571.38;6315848;20;3519114;-54
2022/06/02 00:44:50;;;;;;;;;10.00;10.00;;;;;12.91;100.00;99569.16;6337223;20;2783703;-55
2022/06/02 00:47:58;;;;;;;;;15.00;13.00;;;;;12.91;100.00;99574.53;6284253;20;2814837;-54
2022/06/02 00:51:04;;;;;;;;;16.00;16.00;;;;;12.71;100.00;99569.75;6279852;20;2491927;-56
2022/06/02 00:58:09;;;;;;;;;14.00;12.67;;;;;12.98;100.00;99571.38;6309513;20;3535715;-55
2022/06/02 01:01:01;;;;;;;;;13.67;12.00;;;;;13.02;100.00;99581.00;6312401;20;3531692;-54
2022/06/02 01:03:47;;;;;;;;;15.50;14.50;;;;;12.86;100.00;99576.72;6281893;20;2806569;-54
2022/06/02 01:06:44;;;;;;;;;16.00;14.00;;;;;12.79;100.00;99575.44;6284700;20;2803403;-50
2022/06/02 01:09:51;;;;;;;;;15.00;14.00;;;;;13.34;100.00;99584.88;6280183;20;2802444;-54
2022/06/02 01:13:10;;;;;;;;;10.33;10.33;;;;;13.12;100.00;99576.66;6311093;20;3519050;-54
2022/06/02 01:16:05;;;;;;;;;12.50;12.50;;;;;12.95;100.00;99581.44;6315048;20;2803454;-53
2022/06/02 01:19:15;;;;;;;;;16.67;14.00;;;;;12.82;100.00;99572.53;6282949;20;3529440;-55
2022/06/02 01:22:36;;;;;;;;;13.50;13.50;;;;;13.08;99.75;99564.34;6312126;20;2806619;-55
2022/06/02 01:25:26;;;;;;;;;10.20;10.00;;;;;12.84;100.00;99572.41;6301971;20;2794040;-53
2022/06/02 01:28:50;;;;;;;;;13.50;13.50;;;;;12.92;100.00;99570.00;6287321;20;2803371;-53
2022/06/02 01:31:43;;;;;;;;;16.00;16.00;;;;;12.68;100.00;99564.56;6274809;20;2492042;-55
2022/06/02 01:34:50;;;;;;;;;15.00;13.67;;;;;12.59;100.00;99555.34;6281052;20;3520392;-55
2022/06/02 01:37:43;;;;;;;;;14.33;14.33;;;;;12.86;100.00;99555.16;6280755;20;3528343;-53
2022/06/02 01:40:51;;;;;;;;;17.00;16.00;;;;;12.96;100.00;99550.81;6310179;20;3552407;-51
2022/06/02 01:43:45;;;;;;;;;13.50;13.50;;;;;13.12;100.00;99555.94;6284271;20;2798227;-52
2022/06/02 01:46:36;;;;;;;;;13.00;13.00;;;;;13.23;100.00;99547.03;6283044;20;3537750;-50
2022/06/02 01:49:27;;;;;;;;;14.67;14.67;;;;;12.80;100.00;99552.91;6312588;20;3546087;-52
2022/06/02 01:52:42;;;;;;;;;13.00;13.00;;;;;12.30;100.00;99541.28;6279192;20;2807583;-48
2022/06/02 01:55:26;;;;;;;;;14.00;14.00;;;;;12.71;100.00;99537.41;6280382;20;2796205;-52
2022/06/02 01:58:49;;;;;;;;;15.00;15.00;;;;;12.69;100.00;99528.56;6316931;20;2812779;-54
2022/06/02 02:02:05;;;;;;;;;13.50;13.00;;;;;12.38;100.00;99530.81;6283592;20;2806503;-52
2022/06/02 02:05:06;;;;;;;;;14.67;13.33;;;;;12.65;100.00;99536.03;6275746;20;3520072;-56
2022/06/02 02:08:47;;;;;;;;;16.00;15.00;;;;;13.08;99.99;99538.25;6307670;20;3538796;-55
2022/06/02 02:11:46;;;;;;;;;15.33;14.67;;;;;12.99;99.58;99538.09;6305580;20;3538796;-55
2022/06/02 02:14:55;;;;;;;;;14.00;14.00;;;;;12.89;100.00;99543.28;6279915;20;3521106;-56
2022/06/02 02:18:33;;;;;;;;;17.50;17.00;;;;;12.96;100.00;99534.66;6309187;20;2492087;-53
2022/06/02 02:21:17;;;;;;;;;16.33;16.33;;;;;12.95;100.00;99540.13;6273075;20;3552376;-53
2022/06/02 02:24:28;;;;;;;;;15.00;15.00;;;;;12.82;100.00;99534.81;6274265;20;3537742;-54
2022/06/02 02:27:15;;;;;;;;;19.33;17.00;;;;;12.81;100.00;99530.38;6275274;20;3552331;-56
2022/06/02 02:30:05;;;;;;;;;17.00;17.00;;;;;13.05;100.00;99543.88;6285238;20;2498190;-52
2022/06/02 02:33:19;;;;;;;;;18.00;18.00;;;;;13.21;100.00;99551.69;6276097;20;2491932;-53
2022/06/02 02:36:42;;;;;;;;;14.33;12.33;;;;;13.39;98.39;99554.88;6280365;20;3513889;-52
2022/06/02 02:40:12;;;;;;;;;17.00;17.00;;;;;13.28;100.00;99563.78;6309185;20;2487868;-51
2022/06/02 02:42:52;;;;;;;;;15.00;15.00;;;;;13.53;100.00;99570.00;6280686;20;2811824;-53
2022/06/02 02:45:47;;;;;;;;;16.67;16.67;;;;;13.13;100.00;99578.34;6276628;20;3562761;-52
2022/06/02 02:49:00;;;;;;;;;17.67;15.00;;;;;13.60;99.85;99573.97;6279133;20;3536747;-55
2022/06/02 02:52:03;;;;;;;;;17.00;15.50;;;;;13.68;98.93;99584.19;6281513;20;2821089;-52
2022/06/02 02:55:25;;;;;;;;;17.00;16.33;;;;;13.43;100.00;99580.66;6278946;20;3565018;-54
2022/06/02 02:58:33;;;;;;;;;20.00;16.50;;;;;13.60;100.00;99568.56;6307848;20;2491916;-56
2022/06/02 03:01:16;;;;;;;;;16.33;16.33;;;;;13.59;100.00;99566.88;6272904;20;3545056;-54
2022/06/02 03:04:18;;;;;;;;;19.00;19.00;;;;;13.70;100.00;99569.59;6274980;20;2485701;-51
2022/06/02 03:06:47;;;;;;;;;17.00;17.00;;;;;13.96;100.00;99570.28;6279768;20;2829455;-52
2022/06/02 03:09:34;;;;;;;;;20.00;17.00;;;;;13.72;100.00;99575.75;6278711;20;2483568;-51
2022/06/02 03:12:10;;;;;;;;;18.00;18.00;;;;;14.04;100.00;99583.19;6276444;20;2837845;-54
2022/06/02 03:14:50;;;;;;;;;20.00;20.00;;;;;14.03;100.00;99589.56;6277760;20;2828503;-51
2022/06/02 03:17:51;;;;;;;;;16.67;16.67;;;;;14.33;98.90;99580.06;6278846;20;3559615;-50
2022/06/02 03:20:51;;;;;;;;;17.33;17.33;;;;;14.41;98.23;99588.41;6277972;20;3565872;-54
2022/06/02 03:24:02;;;;;;;;;19.00;18.00;;;;;14.32;98.78;99589.13;6278626;20;2491981;-54
2022/06/02 03:27:07;;;;;;;;;19.00;17.00;;;;;14.19;99.83;99600.91;6279135;20;2488293;-53
2022/06/02 03:29:55;;;;;;;;;15.67;15.67;;;;;14.34;99.04;99597.97;6279738;20;3542284;-54
2022/06/02 03:33:00;;;;;;;;;13.00;13.00;;;;;14.17;99.86;99602.88;6274045;20;3540362;-50
2022/06/02 03:35:58;;;;;;;;;16.00;14.00;;;;;14.12;99.60;99605.06;6283592;20;2491923;-56
2022/06/02 03:39:10;;;;;;;;;16.33;16.33;;;;;14.23;99.05;99604.22;6274863;20;3553414;-58
2022/06/02 03:42:40;;;;;;;;;16.33;15.00;;;;;14.14;100.00;99607.63;6281313;20;3541884;-54
2022/06/02 03:45:50;;;;;;;;;14.00;14.00;;;;;14.23;100.00;99618.56;6282424;20;2494064;-60
2022/06/02 03:48:36;;;;;;;;;17.00;17.00;;;;;14.13;100.00;99620.25;6286026;20;2830478;-60
2022/06/02 03:51:31;;;;;;;;;17.00;14.67;;;;;14.24;99.34;99630.22;6281508;20;3547127;-57
2022/06/02 03:54:54;;;;;;;;;16.67;14.00;;;;;14.20;99.18;99635.03;6281742;20;3550258;-57
2022/06/02 03:57:50;;;;;;;;;18.00;14.67;;;;;14.40;98.76;99635.28;6281636;20;3545055;-56
2022/06/02 04:00:49;;;;;;;;;15.00;14.50;;;;;14.32;98.22;99627.78;6294212;20;2636778;-53
2022/06/02 04:03:51;;;;;;;;;15.50;15.50;;;;;14.39;97.85;99629.03;6277926;20;2491956;-55
2022/06/02 04:07:11;;;;;;;;;18.00;16.00;;;;;14.48;97.92;99640.94;6282941;20;3551303;-54
2022/06/02 04:10:56;;;;;;;;;15.67;15.67;;;;;14.52;96.63;99645.16;6282823;20;2823303;-56
2022/06/02 04:14:09;;;;;;;;;13.67;12.33;;;;;14.58;97.27;99651.94;6313760;20;3530707;-57
2022/06/02 04:17:26;;;;;;;;;15.00;15.00;;;;;14.65;98.62;99647.78;6281709;20;3548186;-57
2022/06/02 04:20:35;;;;;;;;;13.33;13.33;;;;;14.86;95.67;99653.31;6280358;20;3532660;-58
2022/06/02 04:23:39;;;;;;;;;13.33;12.00;;;;;15.00;94.75;99661.19;6312143;20;3520064;-57
2022/06/02 04:26:47;;;;;;;;;12.00;12.00;;;;;14.88;97.49;99659.47;6316819;20;2804451;-57
2022/06/02 04:29:55;;;;;;;;;15.50;14.00;;;;;15.03;96.29;99660.91;6284802;20;2812794;-56
2022/06/02 04:33:03;;;;;;;;;16.67;12.67;;;;;14.90;97.76;99660.19;6282242;20;3529462;-56
2022/06/02 04:36:21;;;;;;;;;12.00;12.00;;;;;15.50;95.10;99667.00;6279760;20;3521138;-56
2022/06/02 04:39:05;;;;;;;;;13.00;11.67;;;;;15.59;94.61;99668.13;6275805;20;3517173;-56
2022/06/02 04:42:29;;;;;;;;;13.00;13.00;;;;;15.38;95.08;99676.16;6312292;20;3525396;-53
2022/06/02 04:45:30;;;;;;;;;16.50;13.00;;;;;15.59;95.21;99657.28;6312197;20;2814976;-58
2022/06/02 04:48:33;;;;;;;;;19.00;18.00;;;;;15.40;96.60;99657.94;6277164;20;2487779;-58
2022/06/02 04:52:16;;;;;;;;;14.00;14.00;;;;;15.52;96.06;99669.59;6279836;20;3535700;-58
2022/06/02 04:55:38;;;;;;;;;17.33;16.33;;;;;15.41;98.29;99666.94;6276122;20;3568985;-58
2022/06/02 04:58:38;;;;;;;;;16.00;15.67;;;;;15.71;96.77;99685.22;6280618;20;3557558;-58
2022/06/02 05:01:57;;;;;;;;;12.33;11.33;;;;;15.74;95.77;99688.50;6279332;20;3512825;-58
2022/06/02 05:04:58;;;;;;;;;15.00;13.00;;;;;15.92;95.51;99691.53;6313875;20;2483673;-58
2022/06/02 05:08:04;;;;;;;;;16.00;15.00;;;;;16.00;94.58;99689.03;6283819;20;3558557;-60
2022/06/02 05:11:06;;;;;;;;;14.67;13.00;;;;;16.09;95.37;99689.25;6278270;20;3539877;-60
2022/06/02 05:14:37;;;;;;;;;16.67;15.00;;;;;16.05;94.88;99690.50;6283425;20;2811734;-60
2022/06/02 05:17:23;;;;;;;;;17.00;17.00;;;;;15.94;97.80;99689.56;6310819;20;2827363;-60
2022/06/02 05:21:03;;;;;;;;;15.50;15.50;;;;;15.96;97.18;99689.44;6280439;20;2823264;-60
2022/06/02 05:24:31;;;;;;;;;13.00;13.00;;;;;15.84;98.46;99691.31;6283255;20;2500400;-60
2022/06/02 05:27:36;;;;;;;;;16.50;16.50;;;;;16.38;97.63;99689.50;6278525;20;2825249;-60
2022/06/02 05:30:33;;;;;;;;;16.67;16.67;;;;;16.52;95.45;99691.03;6282071;20;3571077;-60
2022/06/02 05:33:38;;;;;;;;;20.50;19.00;;;;;16.52;95.05;99688.31;6282208;20;2844047;-60
2022/06/02 05:37:18;;;;;;;;;17.00;15.00;;;;;16.56;94.60;99685.22;6281122;20;3554426;-60
2022/06/02 05:40:13;;;;;;;;;15.00;15.00;;;;;16.29;95.32;99683.00;6282449;20;2492113;-60
2022/06/02 05:43:25;;;;;;;;;16.67;15.33;;;;;16.37;95.56;99685.91;6284340;20;2825819;-61
2022/06/02 05:46:19;;;;;;;;;15.33;14.00;;;;;16.56;94.07;99690.63;6314013;20;3528607;-58
2022/06/02 05:49:34;;;;;;;;;28.00;26.00;;;;;16.59;93.74;99692.22;6282470;20;2483598;-61
2022/06/02 05:52:34;;;;;;;;;15.00;15.00;;;;;17.01;92.05;99692.19;6282997;20;2810852;-61
2022/06/02 05:55:55;;;;;;;;;15.00;15.00;;;;;17.06;89.68;99692.63;6314132;20;2491976;-61
2022/06/02 05:59:41;;;;;;;;;14.67;14.67;;;;;17.51;87.66;99697.69;6283482;20;3538926;-61
2022/06/02 06:02:45;;;;;;;;;15.00;14.00;;;;;17.89;86.13;99706.94;6279538;20;2803398;-61
2022/06/02 06:06:04;;;;;;;;;16.67;16.00;;;;;18.46;83.38;99707.94;6281470;20;3562769;-61
2022/06/02 06:09:01;;;;;;;;;16.00;15.00;;;;;18.42;80.29;99710.09;6282141;20;3552360;-62
2022/06/02 06:12:16;;;;;;;;;16.00;16.00;;;;;18.67;81.25;99713.22;6282489;20;3552399;-61
2022/06/02 06:14:48;;;;;;;;;14.67;14.67;;;;;18.60;81.81;99715.66;6281873;20;3537830;-61
2022/06/02 06:18:17;;;;;;;;;15.00;14.33;;;;;18.57;81.94;99710.50;6280846;20;3544115;-61
2022/06/02 06:21:37;;;;;;;;;14.00;14.00;;;;;18.78;82.08;99720.38;6278784;20;3532519;-61
2022/06/02 06:24:35;;;;;;;;;12.50;12.50;;;;;18.47;83.86;99716.97;6279033;20;2491923;-61
2022/06/02 06:27:19;;;;;;;;;16.33;15.00;;;;;18.64;83.84;99722.53;6282040;20;3546231;-61
2022/06/02 06:30:44;;;;;;;;;15.00;15.00;;;;;18.80;84.08;99723.78;6281551;20;3547146;-61
2022/06/02 06:33:23;;;;;;;;;14.33;14.33;;;;;18.87;83.82;99727.66;6281081;20;3531519;-61
2022/06/02 06:36:07;;;;;;;;;13.00;13.00;;;;;19.06;82.61;99724.03;6282006;20;3531747;-61
2022/06/02 06:38:54;;;;;;;;;14.50;14.50;;;;;19.39;82.18;99738.09;6280901;20;2804442;-61
2022/06/02 06:42:03;;;;;;;;;15.50;14.50;;;;;19.65;81.74;99739.13;6280125;20;2491952;-61
2022/06/02 06:44:53;;;;;;;;;14.00;13.67;;;;;19.82;80.16;99740.19;6283408;20;2801296;-61
2022/06/02 06:47:45;;;;;;;;;10.50;10.50;;;;;20.14;78.55;99730.66;6316236;20;2789870;-61
2022/06/02 06:51:11;;;;;;;;;13.00;13.00;;;;;21.21;73.99;99735.13;6283452;20;2795067;-61
2022/06/02 06:54:07;;;;;;;;;14.00;14.00;;;;;21.57;73.08;99746.81;6309668;20;3520211;-60
2022/06/02 06:57:16;;;;;;;;;13.00;13.00;;;;;20.60;77.25;99728.75;6310357;20;3519015;-59
2022/06/02 07:00:08;;;;;;;;;15.00;12.67;;;;;21.55;74.03;99740.63;6277775;20;3525294;-60
2022/06/02 07:03:24;;;;;;;;;10.00;10.00;;;;;22.53;68.00;99740.91;6280827;20;2796081;-60
2022/06/02 07:06:06;;;;;;;;;8.67;8.00;;;;;23.37;63.08;99748.91;6316626;20;2749263;-61
2022/06/02 07:08:52;;;;;;;;;10.00;9.40;;;;;23.70;62.81;99743.28;6341517;20;2778483;-60
2022/06/02 07:15:01;;;;;;;;;9.33;9.00;;;;;23.65;60.67;99749.31;6320565;20;2755689;-60
2022/06/02 07:18:25;;;;;;;;;9.33;9.33;;;;;24.16;58.99;99763.50;6326981;20;3482591;-60
2022/06/02 07:21:33;;;;;;;;;11.00;10.33;;;;;23.71;59.63;99762.31;6326872;20;2795062;-61
2022/06/02 07:25:07;;;;;;;;;8.00;8.00;;;;;23.99;59.09;99761.88;6334544;20;2740872;-60
2022/06/02 07:27:43;;;;;;;;;9.33;9.00;;;;;23.95;59.45;99771.50;6320793;20;2758638;-59
2022/06/02 07:30:27;;;;;;;;;10.33;9.00;;;;;25.00;56.29;99777.31;6322218;20;2769103;-60
2022/06/02 07:33:33;;;;;;;;;9.33;9.33;;;;;25.27;55.48;99767.63;6327384;20;2754422;-60
2022/06/02 07:36:27;;;;;;;;;6.00;6.00;;;;;24.66;56.17;99767.63;6328340;20;2726327;-61
2022/06/02 07:40:02;;;;;;;;;12.00;10.33;;;;;24.21;58.54;99766.53;6322399;20;3518113;-61
2022/06/02 07:43:02;;;;;;;;;11.33;10.33;;;;;23.98;57.36;99765.66;6320598;20;3506535;-61
2022/06/02 07:46:31;;;;;;;;;10.00;9.67;;;;;23.97;59.25;99766.69;6320828;20;2782578;-59
2022/06/02 07:49:49;;;;;;;;;9.67;8.33;;;;;24.39;58.01;99762.69;6325924;20;2766928;-60
2022/06/02 07:52:46;;;;;;;;;9.00;9.00;;;;;26.02;53.79;99780.38;6321972;20;3478362;-61
2022/06/02 07:55:54;;;;;;;;;8.33;8.33;;;;;24.43;57.69;99781.31;6325494;20;2744056;-60
2022/06/02 07:58:53;;;;;;;;;11.00;8.33;;;;;24.57;57.60;99782.47;6323193;20;2761797;-60
2022/06/02 08:01:21;;;;;;;;;9.33;9.33;;;;;23.53;60.17;99784.47;6327317;20;2760665;-62
2022/06/02 08:05:11;;;;;;;;;9.00;9.00;;;;;23.88;57.15;99777.72;6352153;20;2748915;-60
2022/06/02 08:08:02;;;;;;;;;7.00;7.00;;;;;24.59;57.28;99783.13;6290869;20;2741925;-61
2022/06/02 08:10:50;;;;;;;;;8.00;8.00;;;;;24.20;56.47;99786.81;6321615;20;2750274;-60
2022/06/02 08:14:09;;;;;;;;;7.33;7.33;;;;;25.47;53.47;99784.44;6326794;20;2744042;-60
2022/06/02 08:17:20;;;;;;;;;8.67;7.33;;;;;25.54;50.73;99792.78;6322909;20;2755493;-60
2022/06/02 08:20:11;;;;;;;;;8.00;7.67;;;;;26.59;49.17;99788.88;6324807;20;2759638;-61
2022/06/02 08:23:13;;;;;;;;;7.67;7.67;;;;;26.80;49.33;99799.88;6321581;20;2746115;-62
2022/06/02 08:25:55;;;;;;;;;7.67;6.00;;;;;26.93;48.69;99800.00;6321177;20;2732577;-63
2022/06/02 08:28:38;;;;;;;;;6.33;6.33;;;;;26.45;48.99;99794.19;6322731;20;2745527;-62
2022/06/02 08:31:47;;;;;;;;;8.00;8.00;;;;;25.85;51.88;99781.59;6316067;20;2748772;-62
2022/06/02 08:34:28;;;;;;;;;10.00;7.00;;;;;25.51;52.89;99780.25;6321358;20;2757625;-62
2022/06/02 08:37:17;;;;;;;;;7.00;7.00;;;;;25.89;50.79;99791.19;6319170;20;2732544;-63
2022/06/02 08:40:22;;;;;;;;;9.00;8.00;;;;;26.25;51.78;99795.88;6320332;20;2761736;-61
2022/06/02 08:43:38;;;;;;;;;8.33;8.33;;;;;25.78;51.77;99792.50;6318829;20;2742079;-61
2022/06/02 08:46:59;;;;;;;;;8.33;8.33;;;;;26.64;50.23;99792.72;6318267;20;2749249;-61
2022/06/02 08:50:16;;;;;;;;;6.67;6.67;;;;;26.96;49.43;99789.66;6329497;20;2737777;-61
2022/06/02 08:53:52;;;;;;;;;8.67;8.67;;;;;26.11;52.37;99783.84;6325171;20;2750403;-62
2022/06/02 08:57:08;;;;;;;;;10.00;8.67;;;;;25.93;51.81;99787.00;6318846;20;2777353;-62
2022/06/02 09:00:29;;;;;;;;;9.00;7.67;;;;;26.63;51.19;99791.03;6318569;20;2747174;-61
2022/06/02 09:03:15;;;;;;;;;7.67;7.67;;;;;27.15;48.63;99794.50;6323584;20;2736791;-62
2022/06/02 09:06:29;;;;;;;;;9.00;8.00;;;;;27.24;48.84;99798.81;6328260;20;2749280;-62
2022/06/02 09:09:16;;;;;;;;;10.33;8.67;;;;;26.77;50.49;99797.53;6325465;20;2764998;-62
2022/06/02 09:12:29;;;;;;;;;8.00;8.00;;;;;25.87;53.60;99790.53;6320005;20;2739883;-62
2022/06/02 09:15:20;;;;;;;;;7.00;7.00;;;;;25.05;53.97;99791.34;6314331;20;2735679;-62
2022/06/02 09:18:45;;;;;;;;;9.00;7.67;;;;;26.16;54.53;99805.28;6314762;20;2754426;-61
2022/06/02 09:22:16;;;;;;;;;6.67;5.67;;;;;25.70;53.58;99805.47;6320579;20;2745076;-60
2022/06/02 09:25:29;;;;;;;;;7.00;7.00;;;;;26.10;52.52;99811.59;6320547;20;2748243;-61
2022/06/02 09:28:39;;;;;;;;;9.00;7.67;;;;;26.44;51.26;99809.03;6325893;20;2751326;-62
2022/06/02 09:32:06;;;;;;;;;5.00;5.00;;;;;26.50;53.41;99812.91;6325013;20;2741927;-62
2022/06/02 09:35:26;;;;;;;;;9.00;9.00;;;;;25.88;53.63;99807.88;6311680;20;2753408;-62
2022/06/02 09:38:24;;;;;;;;;10.33;9.00;;;;;25.76;54.29;99813.00;6314795;20;2768015;-62
2022/06/02 09:41:26;;;;;;;;;8.67;8.67;;;;;25.63;52.88;99811.75;6313767;20;2746086;-62
2022/06/02 09:44:16;;;;;;;;;8.67;8.67;;;;;25.84;54.57;99821.19;6329118;20;2750288;-61
2022/06/02 09:48:02;;;;;;;;;7.00;7.00;;;;;26.16;52.91;99816.31;6322821;20;2739949;-61
2022/06/02 09:51:48;;;;;;;;;8.67;8.67;;;;;26.42;53.41;99813.88;6326561;20;2736698;-61
2022/06/02 09:54:50;;;;;;;;;8.67;7.33;;;;;26.31;53.85;99819.03;6319846;20;2740971;-61
2022/06/02 09:57:56;;;;;;;;;8.00;6.00;;;;;26.42;54.48;99822.13;6315937;20;2745068;-61
2022/06/02 10:00:56;;;;;;;;;8.00;7.33;;;;;25.87;54.82;99812.53;6314900;20;2744047;-61
2022/06/02 10:03:49;;;;;;;;;11.00;11.00;;;;;26.16;55.01;99808.06;6316169;20;3510803;-61
2022/06/02 10:07:16;;;;;;;;;7.00;7.00;;;;;26.85;52.27;99815.81;6341136;20;2739836;-62
2022/06/02 10:10:39;;;;;;;;;5.67;4.00;;;;;26.52;52.55;99815.50;6286452;20;2745075;-62
2022/06/02 10:13:38;;;;;;;;;10.00;10.00;;;;;26.50;53.00;99824.75;6315816;20;2785684;-62
2022/06/02 10:17:27;;;;;;;;;9.00;9.00;;;;;26.18;54.35;99815.06;6311585;20;2748180;-62
2022/06/02 10:20:36;;;;;;;;;8.67;7.67;;;;;25.69;56.96;99810.13;6314269;20;2755517;-62
2022/06/02 10:23:32;;;;;;;;;10.00;9.00;;;;;27.03;53.23;99813.47;6313702;20;2763859;-62
2022/06/02 10:26:45;;;;;;;;;9.00;8.00;;;;;27.99;50.69;99819.31;6323292;20;2744405;-62
2022/06/02 10:29:56;;;;;;;;;8.00;7.67;;;;;27.69;51.44;99818.66;6315942;20;2743065;-62
2022/06/02 10:32:52;;;;;;;;;7.33;7.00;;;;;26.54;53.38;99807.88;6315869;20;2750320;-62
2022/06/02 10:35:41;;;;;;;;;9.33;9.33;;;;;26.99;52.88;99811.28;6315162;20;2769406;-62
2022/06/02 10:39:44;;;;;;;;;7.00;7.00;;;;;27.14;52.12;99804.63;6317464;20;2739929;-62
2022/06/02 10:43:11;;;;;;;;;10.00;10.00;;;;;26.22;54.62;99799.00;6310699;20;2785789;-62
2022/06/02 10:46:11;;;;;;;;;8.33;8.33;;;;;27.28;53.78;99794.63;6311742;20;2754407;-62
2022/06/02 10:49:19;;;;;;;;;8.00;8.00;;;;;27.54;51.89;99788.44;6317846;20;2739817;-62
2022/06/02 10:52:51;;;;;;;;;10.00;9.00;;;;;27.73;50.47;99797.91;6314453;20;3488241;-62
2022/06/02 10:55:43;;;;;;;;;8.33;8.33;;;;;28.47;48.84;99793.59;6316568;20;2746114;-62
2022/06/02 10:58:33;;;;;;;;;10.33;10.33;;;;;28.07;49.96;99787.03;6311431;20;3509619;-62
2022/06/02 11:02:05;;;;;;;;;10.20;8.80;;;;;27.45;51.71;99792.41;6305100;20;2773163;-62
2022/06/02 11:05:23;;;;;;;;;8.60;8.20;;;;;28.62;50.49;99793.41;6312983;20;2757595;-61
2022/06/02 11:08:42;;;;;;;;;7.33;7.00;;;;;28.64;47.53;99794.06;6289259;20;2742962;-62
2022/06/02 11:11:33;;;;;;;;;5.67;5.67;;;;;27.24;50.23;99782.28;6325208;20;2738876;-62
2022/06/02 11:15:06;;;;;;;;;7.00;7.00;;;;;26.71;51.66;99787.31;6328650;20;2730468;-61
2022/06/02 11:18:13;;;;;;;;;8.67;7.33;;;;;27.01;51.81;99785.22;6316691;20;2748374;-61
2022/06/02 11:21:49;;;;;;;;;8.00;8.00;;;;;26.57;54.56;99783.56;6313888;20;2742957;-61
2022/06/02 11:24:51;;;;;;;;;24.33;24.33;;;;;28.13;51.01;99787.09;6315327;20;3576365;-61
2022/06/02 11:28:31;;;;;;;;;8.00;8.00;;;;;28.42;49.59;99788.66;6308575;20;2746217;-59
2022/06/02 11:32:08;;;;;;;;;6.00;6.00;;;;;27.92;51.46;99789.97;6278462;20;2739909;-62
2022/06/02 11:35:37;;;;;;;;;7.00;7.00;;;;;27.90;49.57;99784.63;6316328;20;2741957;-62
2022/06/02 11:38:57;;;;;;;;;8.33;8.00;;;;;28.51;48.87;99785.75;6311152;20;2747248;-62
2022/06/02 11:41:40;;;;;;;;;6.67;6.67;;;;;28.23;50.23;99793.06;6314492;20;2743013;-62
2022/06/02 11:44:21;;;;;;;;;8.00;8.00;;;;;28.44;47.91;99789.34;6317226;20;2737760;-61
2022/06/02 11:48:06;;;;;;;;;8.00;8.00;;;;;28.33;48.16;99786.28;6312840;20;2743995;-61
2022/06/02 11:51:29;;;;;;;;;9.00;7.00;;;;;28.97;47.76;99783.06;6316747;20;2622454;-62
2022/06/02 11:55:00;;;;;;;;;13.00;7.33;;;;;27.98;49.05;99783.59;6314291;20;2773303;-62
2022/06/02 11:57:44;;;;;;;;;6.00;6.00;;;;;28.57;48.72;99793.19;6319438;20;2736703;-61
2022/06/02 12:00:55;;;;;;;;;10.00;8.00;;;;;29.36;47.16;99797.97;6323460;20;2770264;-61
2022/06/02 12:04:00;;;;;;;;;9.00;5.67;;;;;29.55;46.10;99804.53;6319689;20;2755458;-61
2022/06/02 12:07:16;;;;;;;;;6.00;6.00;;;;;28.28;48.62;99805.38;6330021;20;2732576;-61
2022/06/02 12:10:09;;;;;;;;;7.33;6.00;;;;;28.33;47.36;99800.09;6322729;20;2748323;-61
2022/06/02 12:13:02;;;;;;;;;7.00;7.00;;;;;27.23;50.67;99797.13;6322183;20;2731524;-60
2022/06/02 12:16:08;;;;;;;;;5.33;5.33;;;;;27.20;51.31;99807.69;6331138;20;2741311;-61
2022/06/02 12:19:47;;;;;;;;;7.00;7.00;;;;;28.33;47.69;99797.34;6323525;20;2736750;-61
2022/06/02 12:22:48;;;;;;;;;6.00;6.00;;;;;28.64;46.83;99797.66;6317082;20;2739877;-61
2022/06/02 12:25:51;;;;;;;;;5.67;5.67;;;;;28.35;48.24;99800.75;6320234;20;2738943;-62
2022/06/02 12:28:43;;;;;;;;;7.67;7.67;;;;;28.00;48.64;99798.06;6321298;20;2744010;-61
2022/06/02 12:31:54;;;;;;;;;8.00;6.67;;;;;28.77;47.36;99798.75;6322804;20;2732558;-61
2022/06/02 12:34:31;;;;;;;;;5.00;5.00;;;;;28.94;46.80;99800.06;6321943;20;2738783;-60
2022/06/02 12:37:25;;;;;;;;;6.67;6.67;;;;;28.79;46.50;99796.63;6321218;20;2735762;-57
2022/06/02 12:40:37;;;;;;;;;9.00;7.33;;;;;28.76;46.06;99797.06;6317750;20;2746105;-57
2022/06/02 12:43:53;;;;;;;;;5.33;5.33;;;;;28.63;47.09;99803.41;6322057;20;2732578;-56
2022/06/02 12:46:59;;;;;;;;;7.00;7.00;;;;;28.11;48.48;99799.38;6319776;20;2739910;-57
2022/06/02 12:50:28;;;;;;;;;7.20;7.00;;;;;28.77;47.53;99804.28;6342104;20;2740329;-58
2022/06/02 12:53:58;;;;;;;;;8.67;7.00;;;;;29.32;45.85;99803.06;6285877;20;2746113;-57
2022/06/02 12:57:47;;;;;;;;;5.00;5.00;;;;;29.00;44.74;99790.91;6344501;20;2734651;-58
2022/06/02 13:00:38;;;;;;;;;3.60;3.60;;;;;29.17;46.02;99793.28;6310721;20;2738930;-59
2022/06/02 13:03:47;;;;;;;;;7.00;6.00;;;;;29.44;45.43;99786.69;6290442;20;2743020;-58
2022/06/02 13:07:06;;;;;;;;;6.33;6.33;;;;;28.73;45.71;99791.97;6320009;20;2739855;-59
2022/06/02 13:10:28;;;;;;;;;5.20;5.00;;;;;29.43;44.98;99798.78;6344856;20;2742993;-58
2022/06/02 13:13:44;;;;;;;;;6.00;6.00;;;;;29.30;45.46;99799.66;6314547;20;2742988;-59
2022/06/02 13:17:22;;;;;;;;;5.80;5.60;;;;;28.32;46.39;99795.66;6314507;20;2738204;-59
2022/06/02 13:21:03;;;;;;;;;5.80;5.00;;;;;28.15;46.86;99800.69;6308484;20;2735671;-59
2022/06/02 13:24:05;;;;;;;;;5.00;5.00;;;;;28.83;46.66;99792.38;6288172;20;2744084;-59
2022/06/02 13:27:23;;;;;;;;;5.00;5.00;;;;;27.91;48.14;99799.28;6320827;20;2737753;-58
2022/06/02 13:31:04;;;;;;;;;7.20;5.40;;;;;29.00;45.35;99793.69;6343869;20;2738908;-58
2022/06/02 13:34:28;;;;;;;;;4.75;4.00;;;;;29.09;44.65;99791.56;6307407;20;2616926;-59
2022/06/02 13:37:06;;;;;;;;;5.60;5.60;;;;;29.01;46.95;99794.53;6342676;20;2728415;-60
2022/06/02 13:40:19;;;;;;;;;5.00;4.80;;;;;28.52;46.31;99788.31;6344550;20;2721169;-59
2022/06/02 13:43:07;;;;;;;;;4.00;4.00;;;;;29.30;46.02;99787.75;6312495;20;2732545;-59
2022/06/02 13:46:31;;;;;;;;;4.00;4.00;;;;;29.20;43.81;99781.78;6310719;20;2738816;-58
2022/06/02 13:49:43;;;;;;;;;4.00;4.00;;;;;28.39;45.22;99785.47;6311855;20;2734265;-59
2022/06/02 13:52:40;;;;;;;;;4.00;4.00;;;;;28.55;44.87;99790.66;6312699;20;2737852;-59
2022/06/02 13:58:56;;;;;;;;;5.20;5.20;;;;;28.57;43.63;99780.25;6341874;20;2735781;-58
2022/06/02 14:01:45;;;;;;;;;4.80;4.80;;;;;28.61;43.91;99775.97;6311928;20;2715916;-59
2022/06/02 14:04:26;;;;;;;;;5.00;5.00;;;;;28.73;43.41;99778.16;6319396;20;2748185;-58
2022/06/02 14:08:22;;;;;;;;;5.00;5.00;;;;;28.79;44.92;99780.06;6319515;20;2755506;-58
2022/06/02 14:11:35;;;;;;;;;5.80;5.80;;;;;28.83;44.63;99784.97;6338796;20;2736824;-58
2022/06/02 14:14:46;;;;;;;;;5.67;5.00;;;;;28.46;44.28;99786.34;6283567;20;2743017;-59
2022/06/02 14:17:41;;;;;;;;;6.20;4.60;;;;;28.26;43.69;99779.91;6342817;20;2728539;-59
2022/06/02 14:20:46;;;;;;;;;5.00;5.00;;;;;28.18;43.87;99773.50;6308724;20;2739880;-58